Time;durP1;ratioP1;P1;durP2;ratioP2;P2;SDS_P1;SDS_P2;PMS_P1;PMS_P2;Temp;Humidity;BMP_temperature;BMP_pressure;BME280_temperature;BME280_humidity;BME280_pressure;Samples;Min_cycle;Max_cycle;Signal;HPM_P1;HPM_P2
2023/12/20 00:01:01;;;;;;;30.30;3.58;;;;;;;;;;5113296;28;20073;-73
2023/12/20 00:03:27;;;;;;;31.40;3.65;;;;;;;;;;5114583;28;20038;-75
2023/12/20 00:05:53;;;;;;;34.70;3.05;;;;;;;;;;5113853;28;20463;-74
2023/12/20 00:08:19;;;;;;;25.15;3.92;;;;;;;;;;5113972;28;20043;-74
2023/12/20 00:10:46;;;;;;;25.42;3.28;;;;;;;;;;5113471;28;20555;-73
2023/12/20 00:13:12;;;;;;;37.90;4.43;;;;;;;;;;5113400;27;20020;-73
2023/12/20 00:15:38;;;;;;;33.63;3.92;;;;;;;;;;5113858;28;20028;-74
2023/12/20 00:18:05;;;;;;;32.55;3.63;;;;;;;;;;5114005;28;20092;-73
2023/12/20 00:20:31;;;;;;;28.98;3.22;;;;;;;;;;5112790;28;20539;-73
2023/12/20 00:23:00;;;;;;;42.13;4.68;;;;;;;;;;5113760;28;20415;-75
2023/12/20 00:25:26;;;;;;;29.27;4.50;;;;;;;;;;5115432;28;20051;-73
2023/12/20 00:27:52;;;;;;;30.95;3.30;;;;;;;;;;5114605;28;20106;-74
2023/12/20 00:30:19;;;;;;;29.27;3.65;;;;;;;;;;5114637;28;20115;-73
2023/12/20 00:32:46;;;;;;;29.10;4.60;;;;;;;;;;5114556;28;20024;-73
2023/12/20 00:35:16;;;;;;;28.05;3.85;;;;;;;;;;5114553;28;20525;-73
2023/12/20 00:37:45;;;;;;;33.50;4.55;;;;;;;;;;5114573;28;20019;-73
2023/12/20 00:40:11;;;;;;;37.95;3.60;;;;;;;;;;5114381;28;20136;-73
2023/12/20 00:42:38;;;;;;;25.00;3.50;;;;;;;;;;5114404;28;20023;-73
2023/12/20 00:45:04;;;;;;;50.95;5.10;;;;;;;;;;5114496;28;20027;-73
2023/12/20 00:47:31;;;;;;;33.92;4.50;;;;;;;;;;5114443;28;20180;-75
2023/12/20 00:49:57;;;;;;;31.38;3.85;;;;;;;;;;5114018;28;20028;-75
2023/12/20 00:52:23;;;;;;;40.95;5.07;;;;;;;;;;5114887;28;20085;-74
2023/12/20 00:54:49;;;;;;;35.88;3.75;;;;;;;;;;5114613;28;20019;-74
2023/12/20 00:57:15;;;;;;;36.90;4.10;;;;;;;;;;5114540;28;20432;-74
2023/12/20 00:59:41;;;;;;;32.28;3.90;;;;;;;;;;5114567;28;20075;-74
2023/12/20 01:02:08;;;;;;;34.53;3.83;;;;;;;;;;5111034;28;20470;-74
2023/12/20 01:04:34;;;;;;;35.15;3.63;;;;;;;;;;5103156;28;20394;-75
2023/12/20 01:07:00;;;;;;;38.72;3.58;;;;;;;;;;5098930;28;20028;-73
2023/12/20 01:09:26;;;;;;;47.38;4.68;;;;;;;;;;5094012;28;20063;-73
2023/12/20 01:11:53;;;;;;;43.17;4.47;;;;;;;;;;5094931;28;20027;-73
2023/12/20 01:14:19;;;;;;;35.75;3.55;;;;;;;;;;5094651;28;20020;-73
2023/12/20 01:16:45;;;;;;;41.15;4.35;;;;;;;;;;5096069;28;20626;-72
2023/12/20 01:19:11;;;;;;;42.45;4.38;;;;;;;;;;5100511;28;20035;-74
2023/12/20 01:21:37;;;;;;;46.80;4.50;;;;;;;;;;5093505;28;20387;-74
2023/12/20 01:24:03;;;;;;;38.95;3.78;;;;;;;;;;5093399;28;20035;-73
2023/12/20 01:26:29;;;;;;;28.77;3.78;;;;;;;;;;5093124;28;20112;-74
2023/12/20 01:28:55;;;;;;;34.58;3.88;;;;;;;;;;5093101;28;20069;-74
2023/12/20 01:31:21;;;;;;;31.73;3.70;;;;;;;;;;5092940;28;20024;-75
2023/12/20 01:33:47;;;;;;;34.00;3.80;;;;;;;;;;5093225;28;20031;-75
2023/12/20 01:36:13;;;;;;;36.55;3.70;;;;;;;;;;5093061;28;20536;-73
2023/12/20 01:38:39;;;;;;;45.83;4.25;;;;;;;;;;5092853;28;20024;-74
2023/12/20 01:41:05;;;;;;;22.33;2.88;;;;;;;;;;5092651;28;20077;-74
2023/12/20 01:43:31;;;;;;;38.15;4.00;;;;;;;;;;5092640;28;20032;-73
2023/12/20 01:45:58;;;;;;;40.58;4.25;;;;;;;;;;5092041;28;20032;-73
2023/12/20 01:48:25;;;;;;;28.58;3.35;;;;;;;;;;5092425;28;20028;-73
2023/12/20 01:50:51;;;;;;;27.88;3.78;;;;;;;;;;5092521;28;20056;-73
2023/12/20 01:53:18;;;;;;;38.50;4.45;;;;;;;;;;5092352;28;20035;-73
2023/12/20 01:55:44;;;;;;;36.25;3.95;;;;;;;;;;5092530;28;20344;-74
2023/12/20 01:58:11;;;;;;;42.25;4.50;;;;;;;;;;5091159;28;20044;-74
2023/12/20 02:00:38;;;;;;;32.15;3.40;;;;;;;;;;5106291;28;20019;-74
2023/12/20 02:03:04;;;;;;;24.40;2.88;;;;;;;;;;5112075;28;20023;-74
2023/12/20 02:05:30;;;;;;;32.08;3.72;;;;;;;;;;5112906;28;20501;-75
2023/12/20 02:07:57;;;;;;;33.50;3.30;;;;;;;;;;5112861;28;20024;-73
2023/12/20 02:10:23;;;;;;;32.50;4.03;;;;;;;;;;5112631;28;20031;-73
2023/12/20 02:12:49;;;;;;;34.03;3.50;;;;;;;;;;5112604;28;20038;-73
2023/12/20 02:15:15;;;;;;;35.72;3.95;;;;;;;;;;5112547;28;20031;-72
2023/12/20 02:17:41;;;;;;;33.70;3.45;;;;;;;;;;5112746;28;20390;-73
2023/12/20 02:20:07;;;;;;;28.95;3.08;;;;;;;;;;5112549;28;20031;-73
2023/12/20 02:22:33;;;;;;;43.08;3.47;;;;;;;;;;5111787;28;20024;-74
2023/12/20 02:24:59;;;;;;;29.20;3.15;;;;;;;;;;5112597;28;20051;-75
2023/12/20 02:27:25;;;;;;;26.73;4.05;;;;;;;;;;5113977;28;20028;-74
2023/12/20 02:29:51;;;;;;;34.42;4.00;;;;;;;;;;5113706;28;20050;-73
2023/12/20 02:32:18;;;;;;;30.88;3.35;;;;;;;;;;5114146;28;20459;-75
2023/12/20 02:34:44;;;;;;;29.85;3.53;;;;;;;;;;5112658;28;20039;-74
2023/12/20 02:37:10;;;;;;;28.63;3.38;;;;;;;;;;5112707;28;20505;-75
2023/12/20 02:39:36;;;;;;;36.03;4.45;;;;;;;;;;5112240;28;20027;-73
2023/12/20 02:42:02;;;;;;;38.65;3.70;;;;;;;;;;5114383;28;20179;-74
2023/12/20 02:44:28;;;;;;;41.75;4.15;;;;;;;;;;5116724;28;20031;-74
2023/12/20 02:46:54;;;;;;;35.30;4.00;;;;;;;;;;5115887;28;20075;-75
2023/12/20 02:49:20;;;;;;;40.92;3.47;;;;;;;;;;5116522;28;20020;-74
2023/12/20 02:51:46;;;;;;;33.88;3.85;;;;;;;;;;5115588;28;20028;-74
2023/12/20 02:54:12;;;;;;;35.10;3.78;;;;;;;;;;5116003;28;20016;-73
2023/12/20 02:56:38;;;;;;;37.30;4.78;;;;;;;;;;5112067;28;20020;-73
2023/12/20 02:59:08;;;;;;;31.65;3.85;;;;;;;;;;5111396;28;20214;-73
2023/12/20 03:01:34;;;;;;;38.65;3.28;;;;;;;;;;5111715;28;20016;-73
2023/12/20 03:04:01;;;;;;;37.10;3.83;;;;;;;;;;5111959;28;20382;-74
2023/12/20 03:06:27;;;;;;;37.53;3.78;;;;;;;;;;5113224;28;20043;-73
2023/12/20 03:08:53;;;;;;;44.53;3.65;;;;;;;;;;5113523;28;20091;-75
2023/12/20 03:11:19;;;;;;;28.70;3.58;;;;;;;;;;5113115;28;20055;-75
2023/12/20 03:13:45;;;;;;;32.30;3.60;;;;;;;;;;5115318;28;20567;-74
2023/12/20 03:16:11;;;;;;;32.47;4.05;;;;;;;;;;5116965;28;20023;-73
2023/12/20 03:18:37;;;;;;;31.65;3.47;;;;;;;;;;5116068;28;20043;-73
2023/12/20 03:21:04;;;;;;;34.60;3.70;;;;;;;;;;5115814;28;20022;-74
2023/12/20 03:23:32;;;;;;;29.88;3.40;;;;;;;;;;5116541;28;20035;-74
2023/12/20 03:25:58;;;;;;;35.88;3.80;;;;;;;;;;5118000;28;20091;-74
2023/12/20 03:28:24;;;;;;;32.25;4.40;;;;;;;;;;5118305;28;20044;-73
2023/12/20 03:30:50;;;;;;;24.92;3.08;;;;;;;;;;5115563;28;20463;-73
2023/12/20 03:33:16;;;;;;;39.13;3.85;;;;;;;;;;5115699;28;20064;-73
2023/12/20 03:35:42;;;;;;;25.98;3.10;;;;;;;;;;5115800;28;20050;-74
2023/12/20 03:38:08;;;;;;;36.95;4.07;;;;;;;;;;5116143;28;20094;-73
2023/12/20 03:40:34;;;;;;;26.27;3.20;;;;;;;;;;5115624;28;20519;-74
2023/12/20 03:43:00;;;;;;;37.70;4.28;;;;;;;;;;5115729;28;20111;-74
2023/12/20 03:45:26;;;;;;;24.42;3.42;;;;;;;;;;5116042;28;20479;-74
2023/12/20 03:47:55;;;;;;;30.00;3.63;;;;;;;;;;5115702;28;20032;-74
2023/12/20 03:50:21;;;;;;;28.52;3.78;;;;;;;;;;5115656;28;20470;-73
2023/12/20 03:52:47;;;;;;;29.15;3.83;;;;;;;;;;5115501;28;20547;-74
2023/12/20 03:55:13;;;;;;;25.30;3.10;;;;;;;;;;5115731;28;20059;-73
2023/12/20 03:57:39;;;;;;;27.77;3.97;;;;;;;;;;5115896;28;20448;-74
2023/12/20 04:00:05;;;;;;;36.28;3.30;;;;;;;;;;5115605;28;20078;-74
2023/12/20 04:02:31;;;;;;;29.00;3.42;;;;;;;;;;5115043;28;20023;-73
2023/12/20 04:04:57;;;;;;;29.70;3.47;;;;;;;;;;5115367;28;20395;-74
2023/12/20 04:07:23;;;;;;;25.02;3.70;;;;;;;;;;5115235;28;20030;-74
2023/12/20 04:09:49;;;;;;;20.75;3.67;;;;;;;;;;5114733;28;20121;-74
2023/12/20 04:12:15;;;;;;;27.73;3.17;;;;;;;;;;5115010;28;20019;-74
2023/12/20 04:14:41;;;;;;;41.63;4.90;;;;;;;;;;5115109;28;20035;-73
2023/12/20 04:17:07;;;;;;;33.85;4.20;;;;;;;;;;5115296;28;20042;-72
2023/12/20 04:19:33;;;;;;;26.00;3.05;;;;;;;;;;5116463;28;20015;-76
2023/12/20 04:21:59;;;;;;;28.05;4.10;;;;;;;;;;5115319;28;20459;-75
2023/12/20 04:24:25;;;;;;;40.13;4.22;;;;;;;;;;5115137;28;20023;-75
2023/12/20 04:26:51;;;;;;;26.73;3.40;;;;;;;;;;5114754;28;20106;-75
2023/12/20 04:29:17;;;;;;;25.58;4.35;;;;;;;;;;5115197;28;20094;-75
2023/12/20 04:31:43;;;;;;;33.22;3.45;;;;;;;;;;5115715;28;20066;-76
2023/12/20 04:34:09;;;;;;;38.97;4.13;;;;;;;;;;5115625;28;20103;-77
2023/12/20 04:36:35;;;;;;;38.58;4.47;;;;;;;;;;5115139;28;20102;-77
2023/12/20 04:39:01;;;;;;;44.17;4.45;;;;;;;;;;5114684;28;20466;-77
2023/12/20 04:41:27;;;;;;;27.35;4.10;;;;;;;;;;5117006;28;20031;-76
2023/12/20 04:43:53;;;;;;;26.77;3.58;;;;;;;;;;5116736;28;20023;-75
2023/12/20 04:46:19;;;;;;;30.10;4.20;;;;;;;;;;5115165;28;20039;-78
2023/12/20 04:48:45;;;;;;;23.63;3.10;;;;;;;;;;5114557;28;20020;-76
2023/12/20 04:51:11;;;;;;;30.95;3.58;;;;;;;;;;5114745;28;20108;-76
2023/12/20 04:53:37;;;;;;;33.30;3.75;;;;;;;;;;5114640;28;20386;-76
2023/12/20 04:56:03;;;;;;;27.05;3.60;;;;;;;;;;5115699;28;20030;-76
2023/12/20 04:58:29;;;;;;;31.67;4.00;;;;;;;;;;5114475;28;20433;-75
2023/12/20 05:00:55;;;;;;;30.05;3.60;;;;;;;;;;5114349;28;20055;-77
2023/12/20 05:03:21;;;;;;;27.80;3.90;;;;;;;;;;5113931;28;20024;-75
2023/12/20 05:05:48;;;;;;;31.63;3.50;;;;;;;;;;5115512;28;20020;-75
2023/12/20 05:08:14;;;;;;;31.55;4.47;;;;;;;;;;5116230;28;20068;-75
2023/12/20 05:10:40;;;;;;;27.77;3.50;;;;;;;;;;5116526;28;20106;-75
2023/12/20 05:13:06;;;;;;;29.05;3.75;;;;;;;;;;5113980;28;20397;-76
2023/12/20 05:15:32;;;;;;;32.45;4.18;;;;;;;;;;5114234;28;20023;-75
2023/12/20 05:17:58;;;;;;;30.60;3.60;;;;;;;;;;5113955;28;20035;-74
2023/12/20 05:20:24;;;;;;;32.42;4.18;;;;;;;;;;5116647;28;20027;-76
2023/12/20 05:22:50;;;;;;;30.73;3.88;;;;;;;;;;5115830;28;20016;-75
2023/12/20 05:25:16;;;;;;;29.52;3.85;;;;;;;;;;5114031;28;20050;-75
2023/12/20 05:27:42;;;;;;;37.65;5.30;;;;;;;;;;5113709;28;20048;-75
2023/12/20 05:30:08;;;;;;;32.80;4.30;;;;;;;;;;5113857;28;20031;-74
2023/12/20 05:32:34;;;;;;;28.65;3.83;;;;;;;;;;5111440;28;20027;-75
2023/12/20 05:35:00;;;;;;;32.50;4.05;;;;;;;;;;5104496;28;20516;-75
2023/12/20 05:37:26;;;;;;;31.55;3.92;;;;;;;;;;5096045;28;20046;-76
2023/12/20 05:39:52;;;;;;;25.00;3.80;;;;;;;;;;5112840;28;20108;-76
2023/12/20 05:42:18;;;;;;;35.85;7.07;;;;;;;;;;5113828;28;20019;-77
2023/12/20 05:44:44;;;;;;;39.47;4.60;;;;;;;;;;5114132;28;20031;-76
2023/12/20 05:47:10;;;;;;;28.98;3.88;;;;;;;;;;5113146;28;20020;-76
2023/12/20 05:49:36;;;;;;;31.40;5.05;;;;;;;;;;5113614;28;20024;-76
2023/12/20 05:52:02;;;;;;;36.40;4.55;;;;;;;;;;5112739;28;20024;-78
2023/12/20 05:54:28;;;;;;;28.42;4.40;;;;;;;;;;5114000;28;20036;-75
2023/12/20 05:56:54;;;;;;;44.72;5.22;;;;;;;;;;5113739;28;20065;-75
2023/12/20 05:59:20;;;;;;;39.90;4.72;;;;;;;;;;5113618;28;20062;-77
2023/12/20 06:01:46;;;;;;;40.60;5.38;;;;;;;;;;5114573;28;20023;-78
2023/12/20 06:04:12;;;;;;;39.75;4.25;;;;;;;;;;5112549;28;20051;-76
2023/12/20 06:06:44;;;;;;;36.85;4.65;;;;;;;;;;5113369;28;20505;-76
2023/12/20 06:09:10;;;;;;;27.08;3.65;;;;;;;;;;5112968;28;20045;-76
2023/12/20 06:11:36;;;;;;;31.67;4.43;;;;;;;;;;5114687;28;20024;-76
2023/12/20 06:14:02;;;;;;;30.02;4.10;;;;;;;;;;5111962;28;20031;-76
2023/12/20 06:16:28;;;;;;;43.42;5.03;;;;;;;;;;5114642;28;20416;-76
2023/12/20 06:18:54;;;;;;;26.88;3.95;;;;;;;;;;5112803;28;20027;-76
2023/12/20 06:21:20;;;;;;;37.00;4.90;;;;;;;;;;5121746;28;20402;-77
2023/12/20 06:23:46;;;;;;;40.67;5.28;;;;;;;;;;5127260;28;20082;-76
2023/12/20 06:26:12;;;;;;;40.80;4.80;;;;;;;;;;5126046;28;20024;-75
2023/12/20 06:28:38;;;;;;;34.03;4.57;;;;;;;;;;5113936;28;20031;-76
2023/12/20 06:31:04;;;;;;;41.50;5.15;;;;;;;;;;5113004;28;20092;-76
2023/12/20 06:33:31;;;;;;;52.83;5.95;;;;;;;;;;5119815;28;20020;-77
2023/12/20 06:35:57;;;;;;;39.25;5.18;;;;;;;;;;5103315;28;20107;-76
2023/12/20 06:38:23;;;;;;;37.10;5.68;;;;;;;;;;5106331;28;20032;-79
2023/12/20 06:40:49;;;;;;;32.25;5.18;;;;;;;;;;5103584;28;20043;-78
2023/12/20 06:43:15;;;;;;;39.45;4.65;;;;;;;;;;5108897;28;20024;-77
2023/12/20 06:45:41;;;;;;;40.17;5.05;;;;;;;;;;5098060;28;20038;-77
2023/12/20 06:48:07;;;;;;;43.35;5.20;;;;;;;;;;5096412;28;20394;-77
2023/12/20 06:50:33;;;;;;;35.05;4.60;;;;;;;;;;5111505;28;20482;-76
2023/12/20 06:52:59;;;;;;;36.15;4.72;;;;;;;;;;5107614;28;20101;-77
2023/12/20 06:55:25;;;;;;;34.88;4.57;;;;;;;;;;5106965;28;20367;-76
2023/12/20 06:57:51;;;;;;;42.60;4.95;;;;;;;;;;5104533;28;20076;-77
2023/12/20 07:00:19;;;;;;;44.03;5.50;;;;;;;;;;5113327;28;20066;-78
2023/12/20 07:02:47;;;;;;;52.20;6.20;;;;;;;;;;5104464;28;20095;-78
2023/12/20 07:05:13;;;;;;;34.85;4.60;;;;;;;;;;5105421;28;20050;-78
2023/12/20 07:07:39;;;;;;;37.90;5.32;;;;;;;;;;5105973;28;20027;-75
2023/12/20 07:10:06;;;;;;;40.72;4.65;;;;;;;;;;5108924;28;20024;-78
2023/12/20 07:12:32;;;;;;;41.75;5.32;;;;;;;;;;5116742;28;20023;-78
2023/12/20 07:14:58;;;;;;;40.60;4.90;;;;;;;;;;5113062;28;20096;-76
2023/12/20 07:17:24;;;;;;;30.55;4.43;;;;;;;;;;5105796;28;20020;-76
2023/12/20 07:19:50;;;;;;;41.03;5.10;;;;;;;;;;5113880;28;20505;-76
2023/12/20 07:22:16;;;;;;;37.80;5.30;;;;;;;;;;5111750;28;20019;-76
2023/12/20 07:24:42;;;;;;;37.08;5.43;;;;;;;;;;5113351;28;20462;-77
2023/12/20 07:27:08;;;;;;;44.53;5.22;;;;;;;;;;5111594;28;20028;-77
2023/12/20 07:29:34;;;;;;;32.92;4.72;;;;;;;;;;5112259;28;20080;-77
2023/12/20 07:32:00;;;;;;;41.38;4.53;;;;;;;;;;5118947;28;20023;-76
2023/12/20 07:34:26;;;;;;;42.92;9.63;;;;;;;;;;5124180;28;20031;-78
2023/12/20 07:36:52;;;;;;;49.03;5.97;;;;;;;;;;5113192;28;20028;-78
2023/12/20 07:39:18;;;;;;;37.75;4.85;;;;;;;;;;5113698;28;20019;-76
2023/12/20 07:41:44;;;;;;;46.22;5.95;;;;;;;;;;5112559;28;20077;-78
2023/12/20 07:44:11;;;;;;;43.25;5.47;;;;;;;;;;5119369;28;20027;-78
2023/12/20 07:46:37;;;;;;;44.50;5.63;;;;;;;;;;5113592;28;20035;-78
2023/12/20 07:49:04;;;;;;;42.97;4.82;;;;;;;;;;5112358;28;20019;-78
2023/12/20 07:51:30;;;;;;;47.88;5.43;;;;;;;;;;5110865;28;20030;-76
2023/12/20 07:53:56;;;;;;;36.35;5.18;;;;;;;;;;5111959;28;20032;-74
2023/12/20 07:56:22;;;;;;;53.00;9.40;;;;;;;;;;5113682;28;20024;-75
2023/12/20 07:58:48;;;;;;;44.15;5.50;;;;;;;;;;5114164;28;20032;-78
2023/12/20 08:01:18;;;;;;;37.50;5.35;;;;;;;;;;5117047;28;20023;-78
2023/12/20 08:03:44;;;;;;;40.08;5.07;;;;;;;;;;5117414;28;20491;-78
2023/12/20 08:06:10;;;;;;;43.72;5.25;;;;;;;;;;5118510;28;20109;-80
2023/12/20 08:08:36;;;;;;;39.95;4.93;;;;;;;;;;5117507;28;20451;-77
2023/12/20 08:11:02;;;;;;;34.42;4.63;;;;;;;;;;5116300;28;20103;-80
2023/12/20 08:13:28;;;;;;;35.40;6.07;;;;;;;;;;5116756;28;20023;-73
2023/12/20 08:15:55;;;;;;;44.63;5.53;;;;;;;;;;5117050;28;20030;-79
2023/12/20 08:18:22;;;;;;;48.20;5.55;;;;;;;;;;5118735;28;20015;-78
2023/12/20 08:20:48;;;;;;;43.38;4.55;;;;;;;;;;5118622;28;20482;-77
2023/12/20 08:23:14;;;;;;;46.00;5.32;;;;;;;;;;5115744;27;20024;-78
2023/12/20 08:25:40;;;;;;;46.90;5.25;;;;;;;;;;5100446;28;20028;-76
2023/12/20 08:28:06;;;;;;;45.42;5.82;;;;;;;;;;5094280;28;20028;-76
2023/12/20 08:30:32;;;;;;;42.33;5.28;;;;;;;;;;5094041;28;20475;-78
2023/12/20 08:33:01;;;;;;;43.38;5.03;;;;;;;;;;5094300;28;20028;-76
2023/12/20 08:35:27;;;;;;;35.88;4.85;;;;;;;;;;5094709;28;20028;-78
2023/12/20 08:37:53;;;;;;;49.55;5.78;;;;;;;;;;5096622;28;20036;-78
2023/12/20 08:40:20;;;;;;;41.83;5.43;;;;;;;;;;5094369;28;20085;-76
2023/12/20 08:42:46;;;;;;;41.28;5.60;;;;;;;;;;5099060;28;20564;-77
2023/12/20 08:45:12;;;;;;;42.70;6.22;;;;;;;;;;5094294;28;20544;-75
2023/12/20 08:47:38;;;;;;;45.95;5.55;;;;;;;;;;5094178;28;20036;-75
2023/12/20 08:50:04;;;;;;;43.25;5.32;;;;;;;;;;5094673;28;20028;-77
2023/12/20 08:52:30;;;;;;;41.17;5.68;;;;;;;;;;5094145;28;20051;-76
2023/12/20 08:54:56;;;;;;;36.90;5.00;;;;;;;;;;5094564;28;20487;-76
2023/12/20 08:57:23;;;;;;;36.08;4.57;;;;;;;;;;5094712;28;20035;-76
2023/12/20 08:59:49;;;;;;;35.30;4.88;;;;;;;;;;5094381;28;20039;-77
2023/12/20 09:02:15;;;;;;;32.08;4.50;;;;;;;;;;5094491;28;20031;-76
2023/12/20 09:04:42;;;;;;;40.40;4.13;;;;;;;;;;5094469;28;20024;-77
2023/12/20 09:07:21;;;;;;;39.65;3.85;;;;;;;;;;5093957;28;20032;-76
2023/12/20 09:09:47;;;;;;;33.33;4.68;;;;;;;;;;5093970;28;20023;-78
2023/12/20 09:12:13;;;;;;;28.98;3.97;;;;;;;;;;5096895;28;20027;-78
2023/12/20 09:14:39;;;;;;;31.40;4.22;;;;;;;;;;5096735;28;20027;-77
2023/12/20 09:17:05;;;;;;;27.55;4.53;;;;;;;;;;5098124;28;20483;-77
2023/12/20 09:19:31;;;;;;;36.40;4.65;;;;;;;;;;5096953;28;20051;-78
2023/12/20 09:21:56;;;;;;;22.15;3.28;;;;;;;;;;5097333;28;20022;-76
2023/12/20 09:24:22;;;;;;;14.88;2.03;;;;;;;;;;5096075;28;20032;-78
2023/12/20 09:26:48;;;;;;;10.40;1.63;;;;;;;;;;5095323;28;20111;-75
2023/12/20 09:29:15;;;;;;;11.40;1.95;;;;;;;;;;5093269;28;20032;-77
2023/12/20 09:31:43;;;;;;;9.20;2.03;;;;;;;;;;5093165;28;20035;-76
2023/12/20 09:34:09;;;;;;;11.88;2.58;;;;;;;;;;5093356;28;20020;-76
2023/12/20 09:36:36;;;;;;;5.43;1.58;;;;;;;;;;5095597;28;20031;-76
2023/12/20 09:39:02;;;;;;;12.35;3.30;;;;;;;;;;5099468;28;20020;-76
2023/12/20 09:41:30;;;;;;;7.22;1.42;;;;;;;;;;5103917;28;20055;-78
2023/12/20 09:43:58;;;;;;;4.70;1.08;;;;;;;;;;5094882;28;20028;-77
2023/12/20 09:46:25;;;;;;;3.20;0.80;;;;;;;;;;5092893;28;20028;-77
2023/12/20 09:48:51;;;;;;;6.80;1.15;;;;;;;;;;5093117;28;20038;-75
2023/12/20 09:51:17;;;;;;;5.07;1.05;;;;;;;;;;5093813;28;20058;-78
2023/12/20 09:53:43;;;;;;;4.80;0.88;;;;;;;;;;5093366;28;20031;-77
2023/12/20 09:56:09;;;;;;;5.97;1.10;;;;;;;;;;5092991;28;20024;-76
2023/12/20 09:58:39;;;;;;;6.45;1.00;;;;;;;;;;5092822;28;20502;-82
2023/12/20 10:01:05;;;;;;;3.20;1.02;;;;;;;;;;5093489;28;20035;-75
2023/12/20 10:03:31;;;;;;;5.07;1.63;;;;;;;;;;5092770;28;20031;-76
2023/12/20 10:06:01;;;;;;;9.65;1.10;;;;;;;;;;5093108;28;20023;-76
2023/12/20 10:08:27;;;;;;;5.63;1.42;;;;;;;;;;5093654;28;20047;-78
2023/12/20 10:10:53;;;;;;;4.63;1.00;;;;;;;;;;5092917;28;20095;-76
2023/12/20 10:13:19;;;;;;;9.55;1.40;;;;;;;;;;5093564;28;20173;-78
2023/12/20 10:15:45;;;;;;;5.57;1.30;;;;;;;;;;5094355;28;20106;-78
2023/12/20 10:18:12;;;;;;;12.70;3.45;;;;;;;;;;5092793;28;20490;-77
2023/12/20 10:20:38;;;;;;;10.88;1.60;;;;;;;;;;5093604;28;20046;-79
2023/12/20 10:23:04;;;;;;;17.75;3.80;;;;;;;;;;5092822;28;20103;-76
2023/12/20 10:25:31;;;;;;;9.95;1.55;;;;;;;;;;5097085;28;20023;-77
2023/12/20 10:28:09;;;;;;;24.50;2.92;;;;;;;;;;5092710;28;20074;-77
2023/12/20 10:30:35;;;;;;;18.42;2.35;;;;;;;;;;5091802;28;20097;-76
2023/12/20 10:33:01;;;;;;;13.55;2.22;;;;;;;;;;5092467;28;20024;-77
2023/12/20 10:35:27;;;;;;;9.55;1.50;;;;;;;;;;5091954;28;20500;-75
2023/12/20 10:37:56;;;;;;;12.85;1.98;;;;;;;;;;5092223;28;20069;-76
2023/12/20 10:40:22;;;;;;;11.85;1.80;;;;;;;;;;5091978;28;20542;-77
2023/12/20 10:42:48;;;;;;;10.98;1.27;;;;;;;;;;5092054;28;20438;-76
2023/12/20 10:45:16;;;;;;;16.50;4.03;;;;;;;;;;5101040;28;20028;-74
2023/12/20 10:47:43;;;;;;;13.10;2.33;;;;;;;;;;5101525;28;20024;-74
2023/12/20 10:50:09;;;;;;;13.30;1.92;;;;;;;;;;5106136;28;20032;-77
2023/12/20 10:52:36;;;;;;;7.82;1.67;;;;;;;;;;5106130;28;20035;-75
2023/12/20 10:55:02;;;;;;;25.42;2.75;;;;;;;;;;5100890;28;20483;-76
2023/12/20 10:57:28;;;;;;;14.77;2.25;;;;;;;;;;5099989;28;20035;-78
2023/12/20 10:59:55;;;;;;;12.93;1.63;;;;;;;;;;5095680;28;20157;-79
2023/12/20 11:02:22;;;;;;;13.75;1.70;;;;;;;;;;5093758;28;20031;-78
2023/12/20 11:04:53;;;;;;;22.40;2.83;;;;;;;;;;5096406;28;20028;-79
2023/12/20 11:07:22;;;;;;;23.95;2.63;;;;;;;;;;5095192;28;20040;-77
2023/12/20 11:09:53;;;;;;;15.88;2.63;;;;;;;;;;5092163;28;20088;-77
2023/12/20 11:12:39;;;;;;;14.05;1.85;;;;;;;;;;5091903;28;20034;-77
2023/12/20 11:15:05;;;;;;;11.32;2.15;;;;;;;;;;5081536;28;20047;-76
2023/12/20 11:17:32;;;;;;;113.68;29.40;;;;;;;;;;5090719;28;20629;-75
2023/12/20 11:19:59;;;;;;;18.90;3.42;;;;;;;;;;5090363;28;20131;-75
2023/12/20 11:22:25;;;;;;;15.48;1.80;;;;;;;;;;5091473;28;20081;-78
2023/12/20 11:24:52;;;;;;;8.50;1.17;;;;;;;;;;5092359;28;20032;-76
2023/12/20 11:27:19;;;;;;;13.60;1.80;;;;;;;;;;5091156;28;20032;-76
2023/12/20 11:29:52;;;;;;;6.85;1.58;;;;;;;;;;5090637;28;20031;-76
2023/12/20 11:32:27;;;;;;;11.02;1.60;;;;;;;;;;5090589;28;20024;-77
2023/12/20 11:34:57;;;;;;;10.93;1.73;;;;;;;;;;5090386;28;20067;-76
2023/12/20 11:37:29;;;;;;;13.57;1.75;;;;;;;;;;5094850;28;20111;-76
2023/12/20 11:39:59;;;;;;;12.07;1.85;;;;;;;;;;5093278;28;20031;-76
2023/12/20 11:42:25;;;;;;;16.00;2.78;;;;;;;;;;5095719;28;20475;-76
2023/12/20 11:44:51;;;;;;;21.75;3.67;;;;;;;;;;5094242;28;20073;-76
2023/12/20 11:47:19;;;;;;;24.55;3.47;;;;;;;;;;5094187;28;20027;-78
2023/12/20 11:49:45;;;;;;;26.80;4.18;;;;;;;;;;5093828;28;20043;-77
2023/12/20 11:52:13;;;;;;;26.85;3.65;;;;;;;;;;5094336;28;20027;-78
2023/12/20 11:54:39;;;;;;;23.27;3.63;;;;;;;;;;5096870;28;20083;-77
2023/12/20 11:57:05;;;;;;;33.50;3.67;;;;;;;;;;5096347;28;20501;-78
2023/12/20 11:59:31;;;;;;;35.80;4.15;;;;;;;;;;5096380;28;20032;-79
2023/12/20 12:02:00;;;;;;;36.35;4.15;;;;;;;;;;5094839;28;20051;-77
2023/12/20 12:04:26;;;;;;;41.08;4.63;;;;;;;;;;5096827;28;20089;-80
2023/12/20 12:06:52;;;;;;;30.77;5.45;;;;;;;;;;5096319;28;20582;-77
2023/12/20 12:09:18;;;;;;;27.90;3.50;;;;;;;;;;5097332;28;20085;-78
2023/12/20 12:11:44;;;;;;;22.45;3.20;;;;;;;;;;5093427;28;20081;-78
2023/12/20 12:14:10;;;;;;;28.40;4.25;;;;;;;;;;5095542;28;20028;-77
2023/12/20 12:16:36;;;;;;;30.00;3.90;;;;;;;;;;5094366;28;20424;-74
2023/12/20 12:19:04;;;;;;;25.15;3.90;;;;;;;;;;5093668;28;20129;-80
2023/12/20 12:21:30;;;;;;;26.88;4.85;;;;;;;;;;5094223;28;20475;-77
2023/12/20 12:24:06;;;;;;;39.08;5.57;;;;;;;;;;5094823;28;20038;-78
2023/12/20 12:26:32;;;;;;;35.80;5.90;;;;;;;;;;5093827;28;20101;-76
2023/12/20 12:28:58;;;;;;;30.73;3.92;;;;;;;;;;5094427;28;20032;-80
2023/12/20 12:31:26;;;;;;;33.78;4.70;;;;;;;;;;5094761;28;20085;-77
2023/12/20 12:33:52;;;;;;;48.63;12.02;;;;;;;;;;5093342;28;20035;-74
2023/12/20 12:36:18;;;;;;;25.80;4.22;;;;;;;;;;5093627;28;20024;-77
2023/12/20 12:38:44;;;;;;;21.63;3.97;;;;;;;;;;5093876;28;20395;-77
2023/12/20 12:41:10;;;;;;;39.28;4.75;;;;;;;;;;5092655;28;20020;-76
2023/12/20 12:43:36;;;;;;;34.28;4.35;;;;;;;;;;5093362;28;20073;-77
2023/12/20 12:46:02;;;;;;;18.27;4.05;;;;;;;;;;5093251;28;20512;-76
2023/12/20 12:48:28;;;;;;;26.33;4.20;;;;;;;;;;5093586;28;20031;-76
2023/12/20 12:50:58;;;;;;;34.63;4.45;;;;;;;;;;5093158;28;20105;-76
2023/12/20 12:53:24;;;;;;;30.42;4.82;;;;;;;;;;5093087;28;20020;-78
2023/12/20 12:55:50;;;;;;;37.13;4.55;;;;;;;;;;5093283;28;20140;-76
2023/12/20 12:58:17;;;;;;;33.75;5.13;;;;;;;;;;5093064;28;20032;-77
2023/12/20 13:00:42;;;;;;;34.63;4.80;;;;;;;;;;5093465;28;20021;-77
2023/12/20 13:03:08;;;;;;;29.15;5.00;;;;;;;;;;5092251;28;20372;-77
2023/12/20 13:05:35;;;;;;;46.97;5.93;;;;;;;;;;5092519;28;20032;-76
2023/12/20 13:08:01;;;;;;;34.58;5.32;;;;;;;;;;5092861;28;20030;-77
2023/12/20 13:10:27;;;;;;;33.22;5.35;;;;;;;;;;5092591;28;20024;-77
2023/12/20 13:12:53;;;;;;;27.85;4.88;;;;;;;;;;5092108;28;20024;-76
2023/12/20 13:15:19;;;;;;;32.50;4.70;;;;;;;;;;5092464;28;20744;-78
2023/12/20 13:17:46;;;;;;;27.48;4.43;;;;;;;;;;5092755;28;20025;-77
2023/12/20 13:20:12;;;;;;;32.65;5.70;;;;;;;;;;5092712;28;20081;-76
2023/12/20 13:22:38;;;;;;;34.92;4.22;;;;;;;;;;5098637;28;20028;-77
2023/12/20 13:25:04;;;;;;;30.55;4.53;;;;;;;;;;5096507;28;20024;-77
2023/12/20 13:27:30;;;;;;;34.10;5.88;;;;;;;;;;5095078;28;20039;-78
2023/12/20 13:29:56;;;;;;;29.52;5.22;;;;;;;;;;5095682;28;20028;-76
2023/12/20 13:32:22;;;;;;;26.95;5.13;;;;;;;;;;5094603;28;20028;-77
2023/12/20 13:34:49;;;;;;;32.58;5.07;;;;;;;;;;5090673;28;20043;-76
2023/12/20 13:37:15;;;;;;;36.83;4.70;;;;;;;;;;5092437;28;20079;-77
2023/12/20 13:39:41;;;;;;;44.38;6.25;;;;;;;;;;5092060;28;20122;-76
2023/12/20 13:42:07;;;;;;;35.92;5.30;;;;;;;;;;5092988;28;20016;-78
2023/12/20 13:44:34;;;;;;;34.67;5.28;;;;;;;;;;5091986;28;20355;-75
2023/12/20 13:47:01;;;;;;;32.22;5.40;;;;;;;;;;5091795;28;20024;-76
2023/12/20 13:49:27;;;;;;;36.42;5.47;;;;;;;;;;5092247;28;20020;-76
2023/12/20 13:51:54;;;;;;;50.30;6.28;;;;;;;;;;5092257;28;20028;-74
2023/12/20 13:54:22;;;;;;;38.83;5.05;;;;;;;;;;5092261;28;20073;-78
2023/12/20 13:56:48;;;;;;;36.83;5.45;;;;;;;;;;5092177;28;20077;-78
2023/12/20 13:59:15;;;;;;;36.08;5.30;;;;;;;;;;5091753;28;20036;-78
2023/12/20 14:01:41;;;;;;;41.67;6.88;;;;;;;;;;5094456;28;20016;-75
2023/12/20 14:04:07;;;;;;;43.33;6.28;;;;;;;;;;5092679;28;20048;-78
2023/12/20 14:06:33;;;;;;;46.67;7.10;;;;;;;;;;5093482;28;20027;-77
2023/12/20 14:09:03;;;;;;;46.45;6.93;;;;;;;;;;5102905;28;20023;-77
2023/12/20 14:11:29;;;;;;;34.13;6.78;;;;;;;;;;5107433;28;20026;-77
2023/12/20 14:13:58;;;;;;;45.22;7.20;;;;;;;;;;5099512;28;20035;-77
2023/12/20 14:16:24;;;;;;;34.60;5.85;;;;;;;;;;5113451;28;20027;-78
2023/12/20 14:18:51;;;;;;;43.88;7.72;;;;;;;;;;5110357;28;20043;-77
2023/12/20 14:21:19;;;;;;;49.83;7.28;;;;;;;;;;5097754;28;20015;-77
2023/12/20 14:23:46;;;;;;;35.85;6.18;;;;;;;;;;5105921;28;20489;-76
2023/12/20 14:26:14;;;;;;;42.22;6.03;;;;;;;;;;5106702;28;20045;-76